Forside
METAR-TAF:

METAR-TAF

Lufthavne :

Kingston, Jamaica

Breddekreds: 17-56N, længdekreds: 076-47W, højde: 3 m

Aktuelle vejr

Denne rapport blev lavet for 1 time og 6 minutter siden, kl. 06:00 UTC
Vind 6 kt fra nordvest
Temperatur 23°C
Fugtighed 94%
Tryk 1011 hPa
Sigt 10 km eller mere
Nogle få skyer i en højde af 2200 ft

METAR: MKJP 190600Z 32006KT 9999 FEW022 23/22 Q1011

Tid: 02:06 (07:06 UTC)

Vejrudsigter

Denne rapport blev lavet for 1 time og 51 minutter siden, kl. 05:15 UTC
Foreløbig gælder fra 19 på 06 UTC til 20 på 06 UTC
Vind 5 kt fra nord
Sigt 10 km eller mere
Nogle få skyer i en højde af 2200 ft
Spredte skyer i en højde af 3400 ft
ændring
fra 19 på 14 UTC til 19 på 16 UTC
Vind 15 kt fra sydøst

TAF: MKJP 190515Z 1906/2006 35005KT 9999 FEW022 SCT034 BECMG 1914/1916 13015KT

Vejrobservationer og prognoser fra mere end 4000 lufthavne (METAR og TAF).

De gule og røde prikker repræsenterer de meteorologiske stationer.

Flyt musen over at se navnet på stationen.

Så klik over at se vejr observationer og prognoser.

At skifte det kort: Klik på de grønne knapper med et sort kors for at zoome ind; på den grønne knap med en bindestreg for at zoome ud; eller på de grønne pile for tilstødende kort.


METAR-TAF: